Terminal Aerodrome Forecast
Issued by NWS Atlanta, GA

Home | Current Version | Previous Version | Text Only | Print | Product List | Glossary On
Versions: 1 2 3 4 5 6 7 8 9 10 11 12 13 14 15 16 17 18 19 20 21 22 23 24 25 26 27 28 29 30 31 32 33 34 35 36 37 38
529
FTUS42 KFFC 211134
TAFATL
TAF
KATL 211134Z 2112/2218 31006KT P6SM FEW045 SCT250
     FM211500 25007KT P6SM SCT050
     FM211900 19008KT P6SM VCSH SCT060
     FM220100 21003KT P6SM FEW060
     FM221400 25007KT P6SM FEW040 SCT250=

USA.gov is the U.S. government's official web portal to all federal, state and local government web resources and services.